sensor_id;sensor_type;location;lat;lon;timestamp;P1;durP1;ratioP1;P2;durP2;ratioP2
28353;SDS011;15603;50.878;8.036;2023-09-30T00:00:10;20.38;;;7.35;;
28353;SDS011;15603;50.878;8.036;2023-09-30T00:02:38;18.60;;;8.05;;
28353;SDS011;15603;50.878;8.036;2023-09-30T00:05:06;21.50;;;6.53;;
28353;SDS011;15603;50.878;8.036;2023-09-30T00:07:34;16.38;;;7.30;;
28353;SDS011;15603;50.878;8.036;2023-09-30T00:10:01;20.02;;;7.93;;
28353;SDS011;15603;50.878;8.036;2023-09-30T00:12:29;19.25;;;8.85;;
28353;SDS011;15603;50.878;8.036;2023-09-30T00:14:57;24.10;;;7.60;;
28353;SDS011;15603;50.878;8.036;2023-09-30T00:17:25;21.30;;;8.68;;
28353;SDS011;15603;50.878;8.036;2023-09-30T00:19:52;21.45;;;8.70;;
28353;SDS011;15603;50.878;8.036;2023-09-30T00:22:19;15.55;;;7.68;;
28353;SDS011;15603;50.878;8.036;2023-09-30T00:24:46;23.05;;;8.07;;
28353;SDS011;15603;50.878;8.036;2023-09-30T00:27:14;13.95;;;7.07;;
28353;SDS011;15603;50.878;8.036;2023-09-30T00:29:41;14.15;;;7.45;;
28353;SDS011;15603;50.878;8.036;2023-09-30T00:32:08;16.73;;;7.63;;
28353;SDS011;15603;50.878;8.036;2023-09-30T00:34:36;16.80;;;7.25;;
28353;SDS011;15603;50.878;8.036;2023-09-30T00:37:04;20.40;;;8.73;;
28353;SDS011;15603;50.878;8.036;2023-09-30T00:39:34;23.38;;;7.78;;
28353;SDS011;15603;50.878;8.036;2023-09-30T00:42:02;17.65;;;7.65;;
28353;SDS011;15603;50.878;8.036;2023-09-30T00:44:32;19.77;;;7.88;;
28353;SDS011;15603;50.878;8.036;2023-09-30T00:47:00;16.65;;;7.72;;
28353;SDS011;15603;50.878;8.036;2023-09-30T00:49:28;19.65;;;7.20;;
28353;SDS011;15603;50.878;8.036;2023-09-30T00:51:56;16.30;;;7.05;;
28353;SDS011;15603;50.878;8.036;2023-09-30T00:54:24;18.05;;;7.22;;
28353;SDS011;15603;50.878;8.036;2023-09-30T00:56:53;16.17;;;6.80;;
28353;SDS011;15603;50.878;8.036;2023-09-30T00:59:26;15.13;;;7.45;;
28353;SDS011;15603;50.878;8.036;2023-09-30T01:01:53;15.88;;;7.00;;
28353;SDS011;15603;50.878;8.036;2023-09-30T01:04:24;18.42;;;7.07;;
28353;SDS011;15603;50.878;8.036;2023-09-30T01:06:53;13.68;;;7.07;;
28353;SDS011;15603;50.878;8.036;2023-09-30T01:09:20;17.63;;;7.40;;
28353;SDS011;15603;50.878;8.036;2023-09-30T01:11:48;20.02;;;7.85;;
28353;SDS011;15603;50.878;8.036;2023-09-30T01:14:32;15.88;;;7.07;;
28353;SDS011;15603;50.878;8.036;2023-09-30T01:17:04;21.73;;;8.52;;
28353;SDS011;15603;50.878;8.036;2023-09-30T01:19:35;14.88;;;7.60;;
28353;SDS011;15603;50.878;8.036;2023-09-30T01:22:02;21.38;;;8.13;;
28353;SDS011;15603;50.878;8.036;2023-09-30T01:24:40;22.60;;;8.07;;
28353;SDS011;15603;50.878;8.036;2023-09-30T01:27:08;21.77;;;8.18;;
28353;SDS011;15603;50.878;8.036;2023-09-30T01:29:36;16.25;;;6.75;;
28353;SDS011;15603;50.878;8.036;2023-09-30T01:32:05;21.80;;;7.30;;
28353;SDS011;15603;50.878;8.036;2023-09-30T01:34:36;18.15;;;8.32;;
28353;SDS011;15603;50.878;8.036;2023-09-30T01:37:03;17.63;;;7.90;;
28353;SDS011;15603;50.878;8.036;2023-09-30T01:39:31;20.58;;;8.57;;
28353;SDS011;15603;50.878;8.036;2023-09-30T01:41:59;16.42;;;7.35;;
28353;SDS011;15603;50.878;8.036;2023-09-30T01:44:26;19.75;;;7.30;;
28353;SDS011;15603;50.878;8.036;2023-09-30T01:46:54;15.68;;;7.30;;
28353;SDS011;15603;50.878;8.036;2023-09-30T01:49:21;20.38;;;8.25;;
28353;SDS011;15603;50.878;8.036;2023-09-30T01:51:51;16.38;;;8.27;;
28353;SDS011;15603;50.878;8.036;2023-09-30T01:54:18;19.13;;;8.75;;
28353;SDS011;15603;50.878;8.036;2023-09-30T01:56:45;19.90;;;7.40;;
28353;SDS011;15603;50.878;8.036;2023-09-30T01:59:12;25.52;;;7.40;;
28353;SDS011;15603;50.878;8.036;2023-09-30T02:01:39;20.17;;;6.90;;
28353;SDS011;15603;50.878;8.036;2023-09-30T02:07:59;14.68;;;7.25;;
28353;SDS011;15603;50.878;8.036;2023-09-30T02:10:26;21.10;;;8.07;;
28353;SDS011;15603;50.878;8.036;2023-09-30T02:12:53;15.02;;;7.38;;
28353;SDS011;15603;50.878;8.036;2023-09-30T02:15:21;18.38;;;7.40;;
28353;SDS011;15603;50.878;8.036;2023-09-30T02:17:48;17.88;;;6.93;;
28353;SDS011;15603;50.878;8.036;2023-09-30T02:20:16;20.75;;;6.75;;
28353;SDS011;15603;50.878;8.036;2023-09-30T02:22:46;21.85;;;7.05;;
28353;SDS011;15603;50.878;8.036;2023-09-30T02:25:14;18.95;;;7.15;;
28353;SDS011;15603;50.878;8.036;2023-09-30T02:27:41;19.08;;;7.68;;
28353;SDS011;15603;50.878;8.036;2023-09-30T02:30:09;14.30;;;6.38;;
28353;SDS011;15603;50.878;8.036;2023-09-30T02:32:38;12.90;;;6.63;;
28353;SDS011;15603;50.878;8.036;2023-09-30T02:35:08;11.20;;;6.45;;
28353;SDS011;15603;50.878;8.036;2023-09-30T02:37:38;17.48;;;6.18;;
28353;SDS011;15603;50.878;8.036;2023-09-30T02:40:07;12.02;;;6.40;;
28353;SDS011;15603;50.878;8.036;2023-09-30T02:42:40;15.00;;;6.55;;
28353;SDS011;15603;50.878;8.036;2023-09-30T02:45:08;11.27;;;5.60;;
28353;SDS011;15603;50.878;8.036;2023-09-30T02:47:38;12.20;;;4.85;;
28353;SDS011;15603;50.878;8.036;2023-09-30T02:50:06;11.55;;;5.10;;
28353;SDS011;15603;50.878;8.036;2023-09-30T02:52:35;19.85;;;5.22;;
28353;SDS011;15603;50.878;8.036;2023-09-30T02:55:03;9.40;;;4.80;;
28353;SDS011;15603;50.878;8.036;2023-09-30T02:57:30;11.00;;;4.63;;
28353;SDS011;15603;50.878;8.036;2023-09-30T02:59:58;10.27;;;4.95;;
28353;SDS011;15603;50.878;8.036;2023-09-30T03:02:27;13.32;;;5.05;;
28353;SDS011;15603;50.878;8.036;2023-09-30T03:04:55;22.25;;;5.90;;
28353;SDS011;15603;50.878;8.036;2023-09-30T03:07:25;21.90;;;4.90;;
28353;SDS011;15603;50.878;8.036;2023-09-30T03:09:52;16.23;;;5.65;;
28353;SDS011;15603;50.878;8.036;2023-09-30T03:12:21;18.27;;;6.38;;
28353;SDS011;15603;50.878;8.036;2023-09-30T03:14:48;18.20;;;5.38;;
28353;SDS011;15603;50.878;8.036;2023-09-30T03:17:15;11.10;;;5.03;;
28353;SDS011;15603;50.878;8.036;2023-09-30T03:19:42;16.63;;;5.60;;
28353;SDS011;15603;50.878;8.036;2023-09-30T03:22:09;12.32;;;5.32;;
28353;SDS011;15603;50.878;8.036;2023-09-30T03:24:38;18.02;;;7.10;;
28353;SDS011;15603;50.878;8.036;2023-09-30T03:27:07;24.08;;;6.35;;
28353;SDS011;15603;50.878;8.036;2023-09-30T03:29:35;11.77;;;5.97;;
28353;SDS011;15603;50.878;8.036;2023-09-30T03:32:04;13.57;;;5.68;;
28353;SDS011;15603;50.878;8.036;2023-09-30T03:34:33;13.80;;;4.78;;
28353;SDS011;15603;50.878;8.036;2023-09-30T03:37:03;19.13;;;5.60;;
28353;SDS011;15603;50.878;8.036;2023-09-30T03:39:33;14.70;;;5.63;;
28353;SDS011;15603;50.878;8.036;2023-09-30T03:42:01;14.38;;;5.85;;
28353;SDS011;15603;50.878;8.036;2023-09-30T03:44:29;18.95;;;5.43;;
28353;SDS011;15603;50.878;8.036;2023-09-30T03:46:57;13.90;;;5.70;;
28353;SDS011;15603;50.878;8.036;2023-09-30T03:49:28;14.68;;;5.32;;
28353;SDS011;15603;50.878;8.036;2023-09-30T03:51:55;16.60;;;6.47;;
28353;SDS011;15603;50.878;8.036;2023-09-30T03:54:22;14.45;;;5.68;;
28353;SDS011;15603;50.878;8.036;2023-09-30T03:56:50;11.88;;;4.88;;
28353;SDS011;15603;50.878;8.036;2023-09-30T03:59:17;13.70;;;5.40;;
28353;SDS011;15603;50.878;8.036;2023-09-30T04:01:45;18.50;;;5.22;;
28353;SDS011;15603;50.878;8.036;2023-09-30T04:04:14;10.60;;;5.45;;
28353;SDS011;15603;50.878;8.036;2023-09-30T04:06:42;11.38;;;5.10;;
28353;SDS011;15603;50.878;8.036;2023-09-30T04:09:09;15.60;;;6.15;;
28353;SDS011;15603;50.878;8.036;2023-09-30T04:11:37;12.30;;;6.25;;
28353;SDS011;15603;50.878;8.036;2023-09-30T04:14:08;25.48;;;6.93;;
28353;SDS011;15603;50.878;8.036;2023-09-30T04:16:35;10.93;;;5.90;;
28353;SDS011;15603;50.878;8.036;2023-09-30T04:19:04;14.35;;;6.53;;
28353;SDS011;15603;50.878;8.036;2023-09-30T04:21:34;12.35;;;6.25;;
28353;SDS011;15603;50.878;8.036;2023-09-30T04:24:01;16.42;;;6.95;;
28353;SDS011;15603;50.878;8.036;2023-09-30T04:26:30;18.25;;;7.03;;
28353;SDS011;15603;50.878;8.036;2023-09-30T04:28:58;21.67;;;7.03;;
28353;SDS011;15603;50.878;8.036;2023-09-30T04:31:27;20.77;;;8.18;;
28353;SDS011;15603;50.878;8.036;2023-09-30T04:33:55;21.33;;;7.78;;
28353;SDS011;15603;50.878;8.036;2023-09-30T04:36:25;21.65;;;7.72;;
28353;SDS011;15603;50.878;8.036;2023-09-30T04:38:52;24.33;;;9.18;;
28353;SDS011;15603;50.878;8.036;2023-09-30T04:41:19;26.92;;;9.27;;
28353;SDS011;15603;50.878;8.036;2023-09-30T04:43:46;24.77;;;9.70;;
28353;SDS011;15603;50.878;8.036;2023-09-30T04:46:15;20.45;;;7.53;;
28353;SDS011;15603;50.878;8.036;2023-09-30T04:48:47;24.97;;;9.07;;
28353;SDS011;15603;50.878;8.036;2023-09-30T04:51:15;21.65;;;8.75;;
28353;SDS011;15603;50.878;8.036;2023-09-30T04:53:45;23.15;;;8.68;;
28353;SDS011;15603;50.878;8.036;2023-09-30T04:56:13;21.85;;;8.13;;
28353;SDS011;15603;50.878;8.036;2023-09-30T04:58:40;26.17;;;9.20;;
28353;SDS011;15603;50.878;8.036;2023-09-30T05:01:08;17.52;;;8.18;;
28353;SDS011;15603;50.878;8.036;2023-09-30T05:03:36;18.02;;;7.82;;
28353;SDS011;15603;50.878;8.036;2023-09-30T05:06:04;24.80;;;7.30;;
28353;SDS011;15603;50.878;8.036;2023-09-30T05:08:31;25.80;;;8.18;;
28353;SDS011;15603;50.878;8.036;2023-09-30T05:10:58;17.73;;;7.05;;
28353;SDS011;15603;50.878;8.036;2023-09-30T05:13:25;16.67;;;7.03;;
28353;SDS011;15603;50.878;8.036;2023-09-30T05:15:53;14.82;;;6.60;;
28353;SDS011;15603;50.878;8.036;2023-09-30T05:18:20;20.65;;;7.03;;
28353;SDS011;15603;50.878;8.036;2023-09-30T05:20:48;16.30;;;6.72;;
28353;SDS011;15603;50.878;8.036;2023-09-30T05:23:16;17.83;;;7.55;;
28353;SDS011;15603;50.878;8.036;2023-09-30T05:25:44;18.02;;;6.65;;
28353;SDS011;15603;50.878;8.036;2023-09-30T05:28:11;15.85;;;7.65;;
28353;SDS011;15603;50.878;8.036;2023-09-30T05:30:40;22.92;;;7.22;;
28353;SDS011;15603;50.878;8.036;2023-09-30T05:33:07;15.43;;;6.75;;
28353;SDS011;15603;50.878;8.036;2023-09-30T05:35:40;15.60;;;7.35;;
28353;SDS011;15603;50.878;8.036;2023-09-30T05:38:08;16.15;;;5.93;;
28353;SDS011;15603;50.878;8.036;2023-09-30T05:40:35;12.80;;;5.43;;
28353;SDS011;15603;50.878;8.036;2023-09-30T05:43:03;10.55;;;5.72;;
28353;SDS011;15603;50.878;8.036;2023-09-30T05:45:32;18.73;;;6.18;;
28353;SDS011;15603;50.878;8.036;2023-09-30T05:48:02;17.52;;;6.57;;
28353;SDS011;15603;50.878;8.036;2023-09-30T05:50:33;18.45;;;6.13;;
28353;SDS011;15603;50.878;8.036;2023-09-30T05:53:03;21.23;;;6.60;;
28353;SDS011;15603;50.878;8.036;2023-09-30T05:55:31;14.05;;;6.15;;
28353;SDS011;15603;50.878;8.036;2023-09-30T05:57:59;13.88;;;6.55;;
28353;SDS011;15603;50.878;8.036;2023-09-30T06:00:27;14.75;;;5.95;;
28353;SDS011;15603;50.878;8.036;2023-09-30T06:02:59;15.02;;;5.60;;
28353;SDS011;15603;50.878;8.036;2023-09-30T06:05:27;12.77;;;4.65;;
28353;SDS011;15603;50.878;8.036;2023-09-30T06:07:59;13.48;;;5.40;;
28353;SDS011;15603;50.878;8.036;2023-09-30T06:10:29;11.35;;;5.15;;
28353;SDS011;15603;50.878;8.036;2023-09-30T06:12:56;14.68;;;5.03;;
28353;SDS011;15603;50.878;8.036;2023-09-30T06:15:25;12.35;;;5.55;;
28353;SDS011;15603;50.878;8.036;2023-09-30T06:17:54;10.20;;;4.75;;
28353;SDS011;15603;50.878;8.036;2023-09-30T06:20:23;13.32;;;4.63;;
28353;SDS011;15603;50.878;8.036;2023-09-30T06:22:53;12.48;;;4.15;;
28353;SDS011;15603;50.878;8.036;2023-09-30T06:25:21;9.90;;;3.42;;
28353;SDS011;15603;50.878;8.036;2023-09-30T06:27:50;11.73;;;4.43;;
28353;SDS011;15603;50.878;8.036;2023-09-30T06:30:18;11.18;;;3.97;;
28353;SDS011;15603;50.878;8.036;2023-09-30T06:32:47;14.55;;;4.85;;
28353;SDS011;15603;50.878;8.036;2023-09-30T06:35:14;14.70;;;4.00;;
28353;SDS011;15603;50.878;8.036;2023-09-30T06:37:42;6.63;;;3.28;;
28353;SDS011;15603;50.878;8.036;2023-09-30T06:40:10;10.18;;;3.80;;
28353;SDS011;15603;50.878;8.036;2023-09-30T06:42:39;10.25;;;3.65;;
28353;SDS011;15603;50.878;8.036;2023-09-30T06:45:08;7.68;;;3.60;;
28353;SDS011;15603;50.878;8.036;2023-09-30T06:47:37;8.88;;;4.07;;
28353;SDS011;15603;50.878;8.036;2023-09-30T06:50:10;5.90;;;3.03;;
28353;SDS011;15603;50.878;8.036;2023-09-30T06:52:40;6.93;;;3.60;;
28353;SDS011;15603;50.878;8.036;2023-09-30T06:55:09;8.63;;;3.60;;
28353;SDS011;15603;50.878;8.036;2023-09-30T06:57:37;8.43;;;3.47;;
28353;SDS011;15603;50.878;8.036;2023-09-30T07:00:08;12.07;;;3.97;;
28353;SDS011;15603;50.878;8.036;2023-09-30T07:02:37;8.35;;;2.95;;
28353;SDS011;15603;50.878;8.036;2023-09-30T07:05:06;7.28;;;3.13;;
28353;SDS011;15603;50.878;8.036;2023-09-30T07:07:34;6.97;;;3.00;;
28353;SDS011;15603;50.878;8.036;2023-09-30T07:10:03;7.60;;;3.17;;
28353;SDS011;15603;50.878;8.036;2023-09-30T07:12:31;8.18;;;3.50;;
28353;SDS011;15603;50.878;8.036;2023-09-30T07:15:02;6.03;;;3.00;;
28353;SDS011;15603;50.878;8.036;2023-09-30T07:17:31;8.02;;;3.20;;
28353;SDS011;15603;50.878;8.036;2023-09-30T07:19:59;11.57;;;3.78;;
28353;SDS011;15603;50.878;8.036;2023-09-30T07:22:26;7.70;;;3.45;;
28353;SDS011;15603;50.878;8.036;2023-09-30T07:25:12;9.55;;;3.80;;
28353;SDS011;15603;50.878;8.036;2023-09-30T07:27:42;10.45;;;3.92;;
28353;SDS011;15603;50.878;8.036;2023-09-30T07:30:10;8.80;;;3.70;;
28353;SDS011;15603;50.878;8.036;2023-09-30T07:32:39;8.85;;;3.28;;
28353;SDS011;15603;50.878;8.036;2023-09-30T07:35:06;10.65;;;4.05;;
28353;SDS011;15603;50.878;8.036;2023-09-30T07:37:34;10.38;;;4.40;;
28353;SDS011;15603;50.878;8.036;2023-09-30T07:40:01;10.98;;;4.93;;
28353;SDS011;15603;50.878;8.036;2023-09-30T07:42:29;11.45;;;4.20;;
28353;SDS011;15603;50.878;8.036;2023-09-30T07:44:57;14.55;;;4.95;;
28353;SDS011;15603;50.878;8.036;2023-09-30T07:47:24;12.63;;;4.45;;
28353;SDS011;15603;50.878;8.036;2023-09-30T07:49:51;8.02;;;4.00;;
28353;SDS011;15603;50.878;8.036;2023-09-30T07:52:18;9.40;;;3.88;;
28353;SDS011;15603;50.878;8.036;2023-09-30T07:54:45;10.75;;;3.95;;
28353;SDS011;15603;50.878;8.036;2023-09-30T07:57:13;9.13;;;3.78;;
28353;SDS011;15603;50.878;8.036;2023-09-30T07:59:40;8.07;;;3.63;;
28353;SDS011;15603;50.878;8.036;2023-09-30T08:02:07;13.45;;;4.47;;
28353;SDS011;15603;50.878;8.036;2023-09-30T08:04:35;12.70;;;4.75;;
28353;SDS011;15603;50.878;8.036;2023-09-30T08:07:02;8.35;;;4.22;;
28353;SDS011;15603;50.878;8.036;2023-09-30T08:09:30;10.70;;;4.22;;
28353;SDS011;15603;50.878;8.036;2023-09-30T08:11:57;16.13;;;4.53;;
28353;SDS011;15603;50.878;8.036;2023-09-30T08:14:25;14.65;;;5.25;;
28353;SDS011;15603;50.878;8.036;2023-09-30T08:16:52;13.70;;;4.65;;
28353;SDS011;15603;50.878;8.036;2023-09-30T08:19:19;13.85;;;4.55;;
28353;SDS011;15603;50.878;8.036;2023-09-30T08:21:47;10.35;;;5.07;;
28353;SDS011;15603;50.878;8.036;2023-09-30T08:24:15;12.18;;;4.85;;
28353;SDS011;15603;50.878;8.036;2023-09-30T08:26:43;13.90;;;4.63;;
28353;SDS011;15603;50.878;8.036;2023-09-30T08:29:10;8.25;;;3.72;;
28353;SDS011;15603;50.878;8.036;2023-09-30T08:31:37;13.25;;;4.93;;
28353;SDS011;15603;50.878;8.036;2023-09-30T08:34:04;13.52;;;4.82;;
28353;SDS011;15603;50.878;8.036;2023-09-30T08:36:31;9.18;;;3.63;;
28353;SDS011;15603;50.878;8.036;2023-09-30T08:38:59;12.68;;;5.22;;
28353;SDS011;15603;50.878;8.036;2023-09-30T08:41:30;12.55;;;4.47;;
28353;SDS011;15603;50.878;8.036;2023-09-30T08:44:00;21.67;;;4.63;;
28353;SDS011;15603;50.878;8.036;2023-09-30T08:46:29;8.73;;;4.05;;
28353;SDS011;15603;50.878;8.036;2023-09-30T08:48:58;8.60;;;3.72;;
28353;SDS011;15603;50.878;8.036;2023-09-30T08:51:28;13.68;;;3.72;;
28353;SDS011;15603;50.878;8.036;2023-09-30T08:53:56;9.38;;;3.72;;
28353;SDS011;15603;50.878;8.036;2023-09-30T08:56:26;9.00;;;4.85;;
28353;SDS011;15603;50.878;8.036;2023-09-30T08:58:58;11.15;;;4.63;;
28353;SDS011;15603;50.878;8.036;2023-09-30T09:01:27;13.23;;;4.90;;
28353;SDS011;15603;50.878;8.036;2023-09-30T09:03:55;15.88;;;5.25;;
28353;SDS011;15603;50.878;8.036;2023-09-30T09:06:24;9.30;;;3.80;;
28353;SDS011;15603;50.878;8.036;2023-09-30T09:08:52;11.23;;;3.97;;
28353;SDS011;15603;50.878;8.036;2023-09-30T09:11:19;12.25;;;3.65;;
28353;SDS011;15603;50.878;8.036;2023-09-30T09:16:17;11.57;;;3.63;;
28353;SDS011;15603;50.878;8.036;2023-09-30T09:18:47;10.90;;;3.90;;
28353;SDS011;15603;50.878;8.036;2023-09-30T09:21:17;10.68;;;3.50;;
28353;SDS011;15603;50.878;8.036;2023-09-30T09:23:46;11.10;;;4.20;;
28353;SDS011;15603;50.878;8.036;2023-09-30T09:28:44;16.33;;;4.72;;
28353;SDS011;15603;50.878;8.036;2023-09-30T09:33:50;12.18;;;5.43;;
28353;SDS011;15603;50.878;8.036;2023-09-30T09:36:17;13.45;;;5.18;;
28353;SDS011;15603;50.878;8.036;2023-09-30T09:38:47;15.43;;;5.72;;
28353;SDS011;15603;50.878;8.036;2023-09-30T09:41:20;15.60;;;4.72;;
28353;SDS011;15603;50.878;8.036;2023-09-30T09:43:48;18.15;;;5.20;;
28353;SDS011;15603;50.878;8.036;2023-09-30T09:46:17;22.58;;;5.80;;
28353;SDS011;15603;50.878;8.036;2023-09-30T09:48:45;15.07;;;4.38;;
28353;SDS011;15603;50.878;8.036;2023-09-30T09:51:14;14.55;;;5.18;;
28353;SDS011;15603;50.878;8.036;2023-09-30T09:53:41;13.02;;;4.82;;
28353;SDS011;15603;50.878;8.036;2023-09-30T09:56:10;11.23;;;4.80;;
28353;SDS011;15603;50.878;8.036;2023-09-30T09:58:39;11.38;;;4.78;;
28353;SDS011;15603;50.878;8.036;2023-09-30T10:01:09;9.90;;;4.45;;
28353;SDS011;15603;50.878;8.036;2023-09-30T10:03:38;9.88;;;4.07;;
28353;SDS011;15603;50.878;8.036;2023-09-30T10:06:06;13.95;;;4.50;;
28353;SDS011;15603;50.878;8.036;2023-09-30T10:08:36;11.30;;;4.28;;
28353;SDS011;15603;50.878;8.036;2023-09-30T10:11:06;11.45;;;4.28;;
28353;SDS011;15603;50.878;8.036;2023-09-30T10:13:53;15.02;;;4.63;;
28353;SDS011;15603;50.878;8.036;2023-09-30T10:19:13;13.63;;;5.22;;
28353;SDS011;15603;50.878;8.036;2023-09-30T10:24:47;13.52;;;4.43;;
28353;SDS011;15603;50.878;8.036;2023-09-30T10:40:55;7.50;;;2.85;;
28353;SDS011;15603;50.878;8.036;2023-09-30T10:43:29;9.18;;;3.63;;
28353;SDS011;15603;50.878;8.036;2023-09-30T10:46:00;7.35;;;2.97;;
28353;SDS011;15603;50.878;8.036;2023-09-30T10:50:56;9.88;;;3.65;;
28353;SDS011;15603;50.878;8.036;2023-09-30T10:53:27;8.43;;;2.80;;
28353;SDS011;15603;50.878;8.036;2023-09-30T10:55:59;9.93;;;3.22;;
28353;SDS011;15603;50.878;8.036;2023-09-30T11:01:11;8.52;;;2.17;;
28353;SDS011;15603;50.878;8.036;2023-09-30T11:03:41;9.77;;;3.10;;
28353;SDS011;15603;50.878;8.036;2023-09-30T11:06:12;9.23;;;1.88;;
28353;SDS011;15603;50.878;8.036;2023-09-30T11:09:06;11.45;;;2.05;;
28353;SDS011;15603;50.878;8.036;2023-09-30T11:11:36;8.32;;;2.13;;
28353;SDS011;15603;50.878;8.036;2023-09-30T11:14:58;8.27;;;2.30;;
28353;SDS011;15603;50.878;8.036;2023-09-30T11:16:58;10.43;;;2.47;;
28353;SDS011;15603;50.878;8.036;2023-09-30T11:19:34;11.68;;;2.30;;
28353;SDS011;15603;50.878;8.036;2023-09-30T11:22:04;14.70;;;2.58;;
28353;SDS011;15603;50.878;8.036;2023-09-30T11:24:35;12.77;;;1.83;;
28353;SDS011;15603;50.878;8.036;2023-09-30T11:27:03;13.77;;;2.40;;
28353;SDS011;15603;50.878;8.036;2023-09-30T11:29:31;7.88;;;1.92;;
28353;SDS011;15603;50.878;8.036;2023-09-30T11:31:59;6.97;;;1.80;;
28353;SDS011;15603;50.878;8.036;2023-09-30T11:34:34;6.70;;;2.10;;
28353;SDS011;15603;50.878;8.036;2023-09-30T11:37:05;7.82;;;2.25;;
28353;SDS011;15603;50.878;8.036;2023-09-30T11:39:33;8.60;;;3.33;;
28353;SDS011;15603;50.878;8.036;2023-09-30T11:42:00;9.02;;;2.08;;
28353;SDS011;15603;50.878;8.036;2023-09-30T11:44:28;5.70;;;1.90;;
28353;SDS011;15603;50.878;8.036;2023-09-30T11:49:32;12.30;;;3.05;;
28353;SDS011;15603;50.878;8.036;2023-09-30T11:52:09;5.40;;;2.28;;
28353;SDS011;15603;50.878;8.036;2023-09-30T11:54:38;5.73;;;1.67;;
28353;SDS011;15603;50.878;8.036;2023-09-30T11:57:08;7.28;;;2.15;;
28353;SDS011;15603;50.878;8.036;2023-09-30T11:59:39;5.88;;;1.58;;
28353;SDS011;15603;50.878;8.036;2023-09-30T12:02:14;7.60;;;2.50;;
28353;SDS011;15603;50.878;8.036;2023-09-30T12:04:43;8.25;;;1.58;;
28353;SDS011;15603;50.878;8.036;2023-09-30T12:07:12;4.65;;;1.70;;
28353;SDS011;15603;50.878;8.036;2023-09-30T12:09:40;4.07;;;1.52;;
28353;SDS011;15603;50.878;8.036;2023-09-30T12:12:08;3.13;;;1.50;;
28353;SDS011;15603;50.878;8.036;2023-09-30T12:14:42;4.68;;;1.45;;
28353;SDS011;15603;50.878;8.036;2023-09-30T12:17:09;6.45;;;1.77;;
28353;SDS011;15603;50.878;8.036;2023-09-30T12:19:41;6.97;;;1.70;;
28353;SDS011;15603;50.878;8.036;2023-09-30T12:22:10;10.02;;;1.33;;
28353;SDS011;15603;50.878;8.036;2023-09-30T12:24:38;7.68;;;1.60;;
28353;SDS011;15603;50.878;8.036;2023-09-30T12:27:07;4.40;;;1.10;;
28353;SDS011;15603;50.878;8.036;2023-09-30T12:29:34;3.97;;;1.40;;
28353;SDS011;15603;50.878;8.036;2023-09-30T12:32:01;6.03;;;1.65;;
28353;SDS011;15603;50.878;8.036;2023-09-30T12:34:28;4.78;;;1.33;;
28353;SDS011;15603;50.878;8.036;2023-09-30T12:36:55;3.88;;;1.08;;
28353;SDS011;15603;50.878;8.036;2023-09-30T12:39:25;5.45;;;1.48;;
28353;SDS011;15603;50.878;8.036;2023-09-30T12:41:54;4.88;;;2.10;;
28353;SDS011;15603;50.878;8.036;2023-09-30T12:44:21;8.27;;;1.27;;
28353;SDS011;15603;50.878;8.036;2023-09-30T12:46:50;3.85;;;1.23;;
28353;SDS011;15603;50.878;8.036;2023-09-30T12:49:17;4.18;;;1.25;;
28353;SDS011;15603;50.878;8.036;2023-09-30T12:51:45;2.97;;;1.13;;
28353;SDS011;15603;50.878;8.036;2023-09-30T12:54:13;11.10;;;2.05;;
28353;SDS011;15603;50.878;8.036;2023-09-30T12:56:42;4.80;;;1.25;;
28353;SDS011;15603;50.878;8.036;2023-09-30T12:59:09;3.70;;;1.23;;
28353;SDS011;15603;50.878;8.036;2023-09-30T13:01:36;9.25;;;1.88;;
28353;SDS011;15603;50.878;8.036;2023-09-30T13:04:03;5.95;;;1.75;;
28353;SDS011;15603;50.878;8.036;2023-09-30T13:06:35;6.60;;;1.60;;
28353;SDS011;15603;50.878;8.036;2023-09-30T13:09:03;4.75;;;1.20;;
28353;SDS011;15603;50.878;8.036;2023-09-30T13:11:31;3.65;;;1.40;;
28353;SDS011;15603;50.878;8.036;2023-09-30T13:14:03;4.35;;;1.05;;
28353;SDS011;15603;50.878;8.036;2023-09-30T13:16:30;6.93;;;1.42;;
28353;SDS011;15603;50.878;8.036;2023-09-30T13:18:58;5.22;;;1.10;;
28353;SDS011;15603;50.878;8.036;2023-09-30T13:21:25;5.28;;;1.25;;
28353;SDS011;15603;50.878;8.036;2023-09-30T13:23:53;2.92;;;1.35;;
28353;SDS011;15603;50.878;8.036;2023-09-30T13:26:20;4.15;;;0.95;;
28353;SDS011;15603;50.878;8.036;2023-09-30T13:28:47;7.72;;;1.27;;
28353;SDS011;15603;50.878;8.036;2023-09-30T13:31:15;2.80;;;1.23;;
28353;SDS011;15603;50.878;8.036;2023-09-30T13:33:42;5.30;;;1.20;;
28353;SDS011;15603;50.878;8.036;2023-09-30T13:36:09;7.72;;;1.75;;
28353;SDS011;15603;50.878;8.036;2023-09-30T13:38:37;4.28;;;1.40;;
28353;SDS011;15603;50.878;8.036;2023-09-30T13:41:04;4.55;;;1.65;;
28353;SDS011;15603;50.878;8.036;2023-09-30T13:43:32;5.10;;;1.20;;
28353;SDS011;15603;50.878;8.036;2023-09-30T13:46:02;4.25;;;1.42;;
28353;SDS011;15603;50.878;8.036;2023-09-30T13:48:30;6.70;;;1.58;;
28353;SDS011;15603;50.878;8.036;2023-09-30T13:51:07;2.70;;;1.13;;
28353;SDS011;15603;50.878;8.036;2023-09-30T13:53:35;2.80;;;1.15;;
28353;SDS011;15603;50.878;8.036;2023-09-30T13:56:02;1.50;;;0.68;;
28353;SDS011;15603;50.878;8.036;2023-09-30T13:58:33;3.08;;;1.17;;
28353;SDS011;15603;50.878;8.036;2023-09-30T14:01:00;5.82;;;1.10;;
28353;SDS011;15603;50.878;8.036;2023-09-30T14:03:27;2.97;;;1.02;;
28353;SDS011;15603;50.878;8.036;2023-09-30T14:05:55;2.83;;;1.27;;
28353;SDS011;15603;50.878;8.036;2023-09-30T14:08:25;2.75;;;1.00;;
28353;SDS011;15603;50.878;8.036;2023-09-30T14:10:52;3.33;;;1.15;;
28353;SDS011;15603;50.878;8.036;2023-09-30T14:13:20;4.53;;;1.10;;
28353;SDS011;15603;50.878;8.036;2023-09-30T14:15:47;2.97;;;1.30;;
28353;SDS011;15603;50.878;8.036;2023-09-30T14:18:14;2.13;;;0.77;;
28353;SDS011;15603;50.878;8.036;2023-09-30T14:20:42;8.38;;;1.70;;
28353;SDS011;15603;50.878;8.036;2023-09-30T14:23:09;4.25;;;1.20;;
28353;SDS011;15603;50.878;8.036;2023-09-30T14:25:36;10.48;;;1.60;;
28353;SDS011;15603;50.878;8.036;2023-09-30T14:28:04;7.40;;;1.50;;
28353;SDS011;15603;50.878;8.036;2023-09-30T14:30:31;4.53;;;1.30;;
28353;SDS011;15603;50.878;8.036;2023-09-30T14:33:00;1.58;;;0.93;;
28353;SDS011;15603;50.878;8.036;2023-09-30T14:35:27;5.20;;;1.60;;
28353;SDS011;15603;50.878;8.036;2023-09-30T14:37:54;5.35;;;1.52;;
28353;SDS011;15603;50.878;8.036;2023-09-30T14:40:23;7.15;;;1.70;;
28353;SDS011;15603;50.878;8.036;2023-09-30T14:42:50;4.68;;;1.65;;
28353;SDS011;15603;50.878;8.036;2023-09-30T14:45:17;4.75;;;1.65;;
28353;SDS011;15603;50.878;8.036;2023-09-30T14:47:45;4.18;;;1.38;;
28353;SDS011;15603;50.878;8.036;2023-09-30T14:50:12;3.53;;;1.35;;
28353;SDS011;15603;50.878;8.036;2023-09-30T14:52:39;2.95;;;0.98;;
28353;SDS011;15603;50.878;8.036;2023-09-30T14:55:07;5.45;;;1.35;;
28353;SDS011;15603;50.878;8.036;2023-09-30T14:57:34;5.10;;;1.45;;
28353;SDS011;15603;50.878;8.036;2023-09-30T15:00:01;5.60;;;1.38;;
28353;SDS011;15603;50.878;8.036;2023-09-30T15:02:29;7.13;;;2.03;;
28353;SDS011;15603;50.878;8.036;2023-09-30T15:04:56;6.47;;;2.00;;
28353;SDS011;15603;50.878;8.036;2023-09-30T15:07:23;5.15;;;1.60;;
28353;SDS011;15603;50.878;8.036;2023-09-30T15:09:50;5.18;;;1.40;;
28353;SDS011;15603;50.878;8.036;2023-09-30T15:12:19;5.45;;;1.55;;
28353;SDS011;15603;50.878;8.036;2023-09-30T15:14:46;3.92;;;1.40;;
28353;SDS011;15603;50.878;8.036;2023-09-30T15:17:14;4.85;;;1.35;;
28353;SDS011;15603;50.878;8.036;2023-09-30T15:19:41;5.03;;;1.35;;
28353;SDS011;15603;50.878;8.036;2023-09-30T15:22:08;4.18;;;1.20;;
28353;SDS011;15603;50.878;8.036;2023-09-30T15:24:35;7.90;;;1.73;;
28353;SDS011;15603;50.878;8.036;2023-09-30T15:27:02;4.00;;;1.80;;